Time,TemperatureF,DewpointF,PressureIn,WindDirection,WindDirectionDegrees,WindSpeedMPH,WindSpeedGustMPH,Humidity,HourlyPrecipIn,Conditions,Clouds,dailyrainin,SolarRadiationWatts/m^2,SoftwareType,DateUTC
2013-03-15 00:02:00,35.0,18.0,-100.00,ESE,119,1.0,2.0,49,0.00,,,0.00,0.000000,,2013-03-15 06:02:00,
2013-03-15 00:12:00,35.0,18.0,-100.00,ESE,119,1.0,2.0,49,0.00,,,0.00,0.000000,,2013-03-15 06:12:00,
2013-03-15 00:22:00,33.0,18.0,-100.00,ESE,103,1.0,3.0,54,0.00,,,0.00,0.000000,,2013-03-15 06:22:00,
2013-03-15 00:42:00,33.0,18.0,-100.00,ESE,103,1.0,3.0,54,0.00,,,0.00,0.000000,,2013-03-15 06:42:00,
2013-03-15 00:53:00,33.0,18.0,-100.00,ESE,103,1.0,3.0,54,0.00,,,0.00,0.000000,,2013-03-15 06:53:00,
2013-03-15 01:02:00,33.0,18.0,-100.00,ESE,103,1.0,3.0,54,0.00,,,0.00,0.000000,,2013-03-15 07:02:00,
2013-03-15 01:12:00,33.0,18.0,-100.00,ESE,103,1.0,3.0,54,0.00,,,0.00,0.000000,,2013-03-15 07:12:00,
2013-03-15 01:22:00,31.0,17.0,-100.00,ENE,72,1.0,3.0,56,0.00,,,0.00,0.000000,,2013-03-15 07:22:00,
2013-03-15 01:42:00,31.0,17.0,-100.00,ENE,72,1.0,3.0,56,0.00,,,0.00,0.000000,,2013-03-15 07:42:00,
2013-03-15 01:52:00,31.0,17.0,-100.00,ENE,72,1.0,3.0,56,0.00,,,0.00,0.000000,,2013-03-15 07:52:00,
2013-03-15 02:02:00,31.0,17.0,-100.00,ENE,72,1.0,3.0,56,0.00,,,0.00,0.000000,,2013-03-15 08:02:00,
2013-03-15 02:12:00,31.0,17.0,-100.00,ENE,72,1.0,3.0,56,0.00,,,0.00,0.000000,,2013-03-15 08:12:00,
2013-03-15 02:22:00,30.0,18.0,-100.00,East,85,1.0,2.0,61,0.00,,,0.00,0.000000,,2013-03-15 08:22:00,
2013-03-15 02:42:00,30.0,18.0,-100.00,East,85,1.0,2.0,61,0.00,,,0.00,0.000000,,2013-03-15 08:42:00,
2013-03-15 02:52:00,30.0,18.0,-100.00,East,85,1.0,2.0,61,0.00,,,0.00,0.000000,,2013-03-15 08:52:00,
2013-03-15 03:02:00,30.0,18.0,-100.00,East,85,1.0,2.0,61,0.00,,,0.00,0.000000,,2013-03-15 09:02:00,
2013-03-15 03:12:00,30.0,18.0,-100.00,East,85,1.0,2.0,61,0.00,,,0.00,0.000000,,2013-03-15 09:12:00,
2013-03-15 03:22:00,30.0,17.0,-100.00,East,96,1.0,2.0,59,0.00,,,0.00,0.000000,,2013-03-15 09:22:00,
2013-03-15 03:43:00,30.0,17.0,-100.00,East,96,1.0,2.0,59,0.00,,,0.00,0.000000,,2013-03-15 09:43:00,
2013-03-15 03:53:00,30.0,17.0,-100.00,East,96,1.0,2.0,59,0.00,,,0.00,0.000000,,2013-03-15 09:53:00,
2013-03-15 04:03:00,30.0,17.0,-100.00,East,96,1.0,2.0,59,0.00,,,0.00,0.000000,,2013-03-15 10:03:00,
2013-03-15 04:12:00,30.0,17.0,-100.00,East,96,1.0,2.0,59,0.00,,,0.00,0.000000,,2013-03-15 10:12:00,
2013-03-15 04:22:00,29.0,18.0,-100.00,East,99,1.0,2.0,62,0.00,,,0.00,0.000000,,2013-03-15 10:22:00,
2013-03-15 04:43:00,29.0,18.0,-100.00,East,99,1.0,2.0,62,0.00,,,0.00,0.000000,,2013-03-15 10:43:00,
2013-03-15 04:52:00,29.0,18.0,-100.00,East,99,1.0,2.0,62,0.00,,,0.00,0.000000,,2013-03-15 10:52:00,
2013-03-15 05:03:00,29.0,18.0,-100.00,East,99,1.0,2.0,62,0.00,,,0.00,0.000000,,2013-03-15 11:03:00,
2013-03-15 05:12:00,29.0,18.0,-100.00,East,99,1.0,2.0,62,0.00,,,0.00,0.000000,,2013-03-15 11:12:00,
2013-03-15 05:22:00,28.0,18.0,-100.00,ENE,62,1.0,2.0,65,0.00,,,0.00,0.000000,,2013-03-15 11:22:00,
2013-03-15 05:42:00,28.0,18.0,-100.00,ENE,62,1.0,2.0,65,0.00,,,0.00,0.000000,,2013-03-15 11:42:00,
2013-03-15 05:52:00,28.0,18.0,-100.00,ENE,62,1.0,2.0,65,0.00,,,0.00,0.000000,,2013-03-15 11:52:00,
2013-03-15 06:02:00,28.0,18.0,-100.00,ENE,62,1.0,2.0,65,0.00,,,0.00,0.000000,,2013-03-15 12:02:00,
2013-03-15 06:12:00,28.0,18.0,-100.00,ENE,62,1.0,2.0,65,0.00,,,0.00,0.000000,,2013-03-15 12:12:00,
2013-03-15 06:22:00,26.0,18.0,-100.00,SSW,196,0.0,2.0,71,0.00,,,0.00,0.000000,,2013-03-15 12:22:00,
2013-03-15 06:42:00,26.0,18.0,-100.00,SSW,196,0.0,2.0,71,0.00,,,0.00,0.000000,,2013-03-15 12:42:00,
2013-03-15 06:52:00,26.0,18.0,-100.00,SSW,196,0.0,2.0,71,0.00,,,0.00,0.000000,,2013-03-15 12:52:00,
2013-03-15 07:02:00,26.0,18.0,-100.00,SSW,196,0.0,2.0,71,0.00,,,0.00,0.000000,,2013-03-15 13:02:00,
2013-03-15 07:12:00,26.0,18.0,-100.00,SSW,196,0.0,2.0,71,0.00,,,0.00,0.000000,,2013-03-15 13:12:00,
2013-03-15 07:22:00,26.0,18.0,-100.00,NW,309,1.0,2.0,71,0.00,,,0.00,0.000000,,2013-03-15 13:22:00,
2013-03-15 07:42:00,26.0,18.0,-100.00,NW,309,1.0,2.0,71,0.00,,,0.00,0.000000,,2013-03-15 13:42:00,
2013-03-15 07:53:00,26.0,18.0,-100.00,NW,309,1.0,2.0,71,0.00,,,0.00,0.000000,,2013-03-15 13:53:00,
2013-03-15 08:02:00,26.0,18.0,-100.00,NW,309,1.0,2.0,71,0.00,,,0.00,0.000000,,2013-03-15 14:02:00,
2013-03-15 08:12:00,26.0,18.0,-100.00,NW,309,1.0,2.0,71,0.00,,,0.00,0.000000,,2013-03-15 14:12:00,
2013-03-15 08:22:00,32.0,19.0,-100.00,ENE,60,1.0,2.0,57,0.00,,,0.00,85.000000,,2013-03-15 14:22:00,
2013-03-15 08:42:00,32.0,19.0,-100.00,ENE,60,1.0,2.0,57,0.00,,,0.00,85.000000,,2013-03-15 14:42:00,
2013-03-15 08:53:00,32.0,19.0,-100.00,ENE,60,1.0,2.0,57,0.00,,,0.00,85.000000,,2013-03-15 14:53:00,
2013-03-15 09:02:00,32.0,19.0,-100.00,ENE,60,1.0,2.0,57,0.00,,,0.00,85.000000,,2013-03-15 15:02:00,
2013-03-15 09:13:00,32.0,19.0,-100.00,ENE,60,1.0,2.0,57,0.00,,,0.00,85.000000,,2013-03-15 15:13:00,
2013-03-15 09:22:00,35.0,19.0,-100.00,NE,56,2.0,3.0,51,0.00,,,0.00,329.000000,,2013-03-15 15:22:00,
2013-03-15 09:53:00,35.0,19.0,-100.00,NE,56,2.0,3.0,51,0.00,,,0.00,329.000000,,2013-03-15 15:53:00,
2013-03-15 10:03:00,35.0,19.0,-100.00,NE,56,2.0,3.0,51,0.00,,,0.00,329.000000,,2013-03-15 16:03:00,
2013-03-15 10:12:00,35.0,19.0,-100.00,NE,56,2.0,3.0,51,0.00,,,0.00,329.000000,,2013-03-15 16:12:00,
2013-03-15 10:22:00,48.0,20.0,-100.00,North,1,1.0,3.0,32,0.00,,,0.00,590.000000,,2013-03-15 16:22:00,
2013-03-15 10:42:00,48.0,20.0,-100.00,North,1,1.0,3.0,32,0.00,,,0.00,590.000000,,2013-03-15 16:42:00,
2013-03-15 10:52:00,48.0,20.0,-100.00,North,1,1.0,3.0,32,0.00,,,0.00,590.000000,,2013-03-15 16:52:00,
2013-03-15 11:02:00,48.0,20.0,-100.00,North,1,1.0,3.0,32,0.00,,,0.00,590.000000,,2013-03-15 17:02:00,
2013-03-15 11:12:00,48.0,20.0,-100.00,North,1,1.0,3.0,32,0.00,,,0.00,590.000000,,2013-03-15 17:12:00,
2013-03-15 11:22:00,45.0,22.0,-100.00,West,268,1.0,2.0,39,0.00,,,0.00,747.000000,,2013-03-15 17:22:00,
2013-03-15 11:43:00,45.0,22.0,-100.00,West,268,1.0,2.0,39,0.00,,,0.00,747.000000,,2013-03-15 17:43:00,
2013-03-15 11:53:00,45.0,22.0,-100.00,West,268,1.0,2.0,39,0.00,,,0.00,747.000000,,2013-03-15 17:53:00,
2013-03-15 12:02:00,45.0,22.0,-100.00,West,268,1.0,2.0,39,0.00,,,0.00,747.000000,,2013-03-15 18:02:00,
2013-03-15 12:12:00,45.0,22.0,-100.00,West,268,1.0,2.0,39,0.00,,,0.00,747.000000,,2013-03-15 18:12:00,
2013-03-15 12:22:00,48.0,20.0,-100.00,West,261,2.0,2.0,33,0.00,,,0.00,920.000000,,2013-03-15 18:22:00,
2013-03-15 12:42:00,48.0,20.0,-100.00,West,261,2.0,2.0,33,0.00,,,0.00,920.000000,,2013-03-15 18:42:00,
2013-03-15 12:52:00,48.0,20.0,-100.00,West,261,2.0,2.0,33,0.00,,,0.00,920.000000,,2013-03-15 18:52:00,
2013-03-15 13:02:00,48.0,20.0,-100.00,West,261,2.0,2.0,33,0.00,,,0.00,920.000000,,2013-03-15 19:02:00,
2013-03-15 13:12:00,48.0,20.0,-100.00,West,261,2.0,2.0,33,0.00,,,0.00,920.000000,,2013-03-15 19:12:00,
2013-03-15 13:22:00,46.0,19.0,-100.00,WNW,299,2.0,4.0,33,0.00,,,-99.99,889.000000,,2013-03-15 19:22:00,
2013-03-15 13:42:00,46.0,19.0,-100.00,WNW,299,2.0,4.0,33,0.00,,,-99.99,889.000000,,2013-03-15 19:42:00,
2013-03-15 13:52:00,46.0,19.0,-100.00,WNW,299,2.0,4.0,33,0.00,,,-99.99,889.000000,,2013-03-15 19:52:00,
2013-03-15 14:02:00,46.0,19.0,-100.00,WNW,299,2.0,4.0,33,0.00,,,-99.99,889.000000,,2013-03-15 20:02:00,
2013-03-15 14:12:00,46.0,19.0,-100.00,WNW,299,2.0,4.0,33,0.00,,,-99.99,889.000000,,2013-03-15 20:12:00,
2013-03-15 14:22:00,46.0,21.0,-100.00,WNW,286,2.0,4.0,36,0.00,,,0.00,665.000000,,2013-03-15 20:22:00,
2013-03-15 14:42:00,46.0,21.0,-100.00,WNW,286,2.0,4.0,36,0.00,,,0.00,665.000000,,2013-03-15 20:42:00,
2013-03-15 14:52:00,46.0,21.0,-100.00,WNW,286,2.0,4.0,36,0.00,,,0.00,665.000000,,2013-03-15 20:52:00,
2013-03-15 15:02:00,46.0,21.0,-100.00,WNW,286,2.0,4.0,36,0.00,,,0.00,665.000000,,2013-03-15 21:02:00,
2013-03-15 15:12:00,46.0,21.0,-100.00,WNW,286,2.0,4.0,36,0.00,,,0.00,665.000000,,2013-03-15 21:12:00,
2013-03-15 15:22:00,49.0,21.0,-100.00,WNW,286,2.0,4.0,33,0.00,,,0.00,700.000000,,2013-03-15 21:22:00,
2013-03-15 15:43:00,49.0,21.0,-100.00,WNW,286,2.0,4.0,33,0.00,,,0.00,700.000000,,2013-03-15 21:43:00,
2013-03-15 15:53:00,49.0,21.0,-100.00,WNW,286,2.0,4.0,33,0.00,,,0.00,700.000000,,2013-03-15 21:53:00,
2013-03-15 16:03:00,49.0,21.0,-100.00,WNW,286,2.0,4.0,33,0.00,,,0.00,700.000000,,2013-03-15 22:03:00,
2013-03-15 16:13:00,49.0,21.0,-100.00,WNW,286,2.0,4.0,33,0.00,,,0.00,700.000000,,2013-03-15 22:13:00,
2013-03-15 16:22:00,50.0,22.0,-100.00,North,351,2.0,4.0,33,0.00,,,0.00,569.000000,,2013-03-15 22:22:00,
2013-03-15 16:42:00,50.0,22.0,-100.00,North,351,2.0,4.0,33,0.00,,,0.00,569.000000,,2013-03-15 22:42:00,
2013-03-15 16:53:00,50.0,22.0,-100.00,North,351,2.0,4.0,33,0.00,,,0.00,569.000000,,2013-03-15 22:53:00,
2013-03-15 17:02:00,50.0,22.0,-100.00,North,351,2.0,4.0,33,0.00,,,0.00,569.000000,,2013-03-15 23:02:00,
2013-03-15 17:12:00,50.0,22.0,-100.00,North,351,2.0,4.0,33,0.00,,,0.00,569.000000,,2013-03-15 23:12:00,
2013-03-15 17:22:00,48.0,21.0,-100.00,West,264,3.0,4.0,34,0.00,,,0.00,522.000000,,2013-03-15 23:22:00,
2013-03-15 17:42:00,48.0,21.0,-100.00,West,264,3.0,4.0,34,0.00,,,0.00,522.000000,,2013-03-15 23:42:00,
2013-03-15 17:53:00,48.0,21.0,-100.00,West,264,3.0,4.0,34,0.00,,,0.00,522.000000,,2013-03-15 23:53:00,
2013-03-15 18:02:00,48.0,21.0,-100.00,West,264,3.0,4.0,34,0.00,,,0.00,522.000000,,2013-03-16 00:02:00,
2013-03-15 18:12:00,48.0,21.0,-100.00,West,264,3.0,4.0,34,0.00,,,0.00,522.000000,,2013-03-16 00:12:00,
2013-03-15 18:42:00,47.0,21.0,-100.00,West,278,4.0,5.0,35,0.00,,,0.00,317.000000,,2013-03-16 00:42:00,
2013-03-15 18:52:00,47.0,21.0,-100.00,West,278,4.0,5.0,35,0.00,,,0.00,317.000000,,2013-03-16 00:52:00,
2013-03-15 19:02:00,47.0,21.0,-100.00,West,278,4.0,5.0,35,0.00,,,0.00,317.000000,,2013-03-16 01:02:00,
2013-03-15 19:12:00,47.0,21.0,-100.00,West,278,4.0,5.0,35,0.00,,,0.00,317.000000,,2013-03-16 01:12:00,
2013-03-15 19:21:00,47.0,21.0,-100.00,West,278,4.0,5.0,35,0.00,,,0.00,317.000000,,2013-03-16 01:21:00,
2013-03-15 19:22:00,43.0,22.0,-100.00,West,266,3.0,5.0,42,0.00,,,0.00,45.000000,,2013-03-16 01:22:00,
2013-03-15 19:42:00,43.0,22.0,-100.00,West,266,3.0,5.0,42,0.00,,,0.00,45.000000,,2013-03-16 01:42:00,
2013-03-15 19:53:00,43.0,22.0,-100.00,West,266,3.0,5.0,42,0.00,,,0.00,45.000000,,2013-03-16 01:53:00,
2013-03-15 20:02:00,43.0,22.0,-100.00,West,266,3.0,5.0,42,0.00,,,0.00,45.000000,,2013-03-16 02:02:00,
2013-03-15 20:12:00,43.0,22.0,-100.00,West,266,3.0,5.0,42,0.00,,,0.00,45.000000,,2013-03-16 02:12:00,
2013-03-15 20:22:00,42.0,21.0,-100.00,West,276,2.0,4.0,43,0.00,,,0.00,0.000000,,2013-03-16 02:22:00,
2013-03-15 20:43:00,42.0,21.0,-100.00,West,276,2.0,4.0,43,0.00,,,0.00,0.000000,,2013-03-16 02:43:00,
2013-03-15 20:52:00,42.0,21.0,-100.00,West,276,2.0,4.0,43,0.00,,,0.00,0.000000,,2013-03-16 02:52:00,
2013-03-15 21:02:00,42.0,21.0,-100.00,West,276,2.0,4.0,43,0.00,,,0.00,0.000000,,2013-03-16 03:02:00,
2013-03-15 21:12:00,42.0,21.0,-100.00,West,276,2.0,4.0,43,0.00,,,0.00,0.000000,,2013-03-16 03:12:00,
2013-03-15 21:22:00,42.0,20.0,-100.00,West,265,3.0,4.0,41,0.00,,,0.00,0.000000,,2013-03-16 03:22:00,
2013-03-15 21:43:00,42.0,20.0,-100.00,West,265,3.0,4.0,41,0.00,,,0.00,0.000000,,2013-03-16 03:43:00,
2013-03-15 21:53:00,42.0,20.0,-100.00,West,265,3.0,4.0,41,0.00,,,0.00,0.000000,,2013-03-16 03:53:00,
2013-03-15 22:02:00,42.0,20.0,-100.00,West,265,3.0,4.0,41,0.00,,,0.00,0.000000,,2013-03-16 04:02:00,
2013-03-15 22:13:00,42.0,20.0,-100.00,West,265,3.0,4.0,41,0.00,,,0.00,0.000000,,2013-03-16 04:13:00,
2013-03-15 22:43:00,37.0,20.0,-100.00,WNW,288,1.0,4.0,50,0.00,,,0.00,0.000000,,2013-03-16 04:43:00,
2013-03-15 22:53:00,37.0,20.0,-100.00,WNW,288,1.0,4.0,50,0.00,,,0.00,0.000000,,2013-03-16 04:53:00,
2013-03-15 23:02:00,37.0,20.0,-100.00,WNW,288,1.0,4.0,50,0.00,,,0.00,0.000000,,2013-03-16 05:02:00,
2013-03-15 23:12:00,37.0,20.0,-100.00,WNW,288,1.0,4.0,50,0.00,,,0.00,0.000000,,2013-03-16 05:12:00,
2013-03-15 23:21:00,37.0,20.0,-100.00,WNW,288,1.0,4.0,50,0.00,,,0.00,0.000000,,2013-03-16 05:21:00,
2013-03-15 23:22:00,38.0,21.0,-100.00,NE,37,2.0,3.0,49,0.00,,,0.00,0.000000,,2013-03-16 05:22:00,
2013-03-15 23:42:00,38.0,21.0,-100.00,NE,37,2.0,3.0,49,0.00,,,0.00,0.000000,,2013-03-16 05:42:00,
2013-03-15 23:53:00,38.0,21.0,-100.00,NE,37,2.0,3.0,49,0.00,,,0.00,0.000000,,2013-03-16 05:53:00,